X  Κλείσε Στοιχεία αεροπορικών μετεωρολογικών δεδομένων METAR     LYNI Nis Airport
θερμοκρασία
15°C θερμοκρασία
5°C Σημείο δρόσου
51% Υγρασία



Ανεμος
5 MPH
8 KM/H
2 M/S
4 KTS



160°
NNA
Τρέχουσες συνθήκες

Μερικώς συννεφιασμένος Μερικώς συννεφιασμένος
πίεση 1013.88 (hPa) - 29.94 (inHg)
Ορατότητα 6 (μίλι) - 9.7 (km)
Aεροδρόμιο
Κωδικός αεροδρομίου LYNI

Τοποθεσία: Nis Airport
Απόσταση: 63 (mi)

Metar:
LYNI 241530Z 16004KT 130V200 9999 FEW050 15/05 Q1014 NOSIG

ώρα: 24-02-2024 16:30 CET